sensor_id;sensor_type;location;lat;lon;timestamp;P1;durP1;ratioP1;P2;durP2;ratioP2
1503;SDS011;743;47.076;15.494;2023-02-19T00:00:21;509.52;;;162.50;;
1503;SDS011;743;47.076;15.494;2023-02-19T00:02:52;522.80;;;161.63;;
1503;SDS011;743;47.076;15.494;2023-02-19T00:05:24;506.15;;;151.90;;
1503;SDS011;743;47.076;15.494;2023-02-19T00:08:06;516.20;;;152.52;;
1503;SDS011;743;47.076;15.494;2023-02-19T00:10:36;518.88;;;156.40;;
1503;SDS011;743;47.076;15.494;2023-02-19T00:13:06;519.80;;;157.45;;
1503;SDS011;743;47.076;15.494;2023-02-19T00:15:35;521.80;;;160.55;;
1503;SDS011;743;47.076;15.494;2023-02-19T00:18:11;518.33;;;157.32;;
1503;SDS011;743;47.076;15.494;2023-02-19T00:20:45;512.38;;;147.68;;
1503;SDS011;743;47.076;15.494;2023-02-19T00:23:17;523.50;;;155.20;;
1503;SDS011;743;47.076;15.494;2023-02-19T00:25:45;522.92;;;156.82;;
1503;SDS011;743;47.076;15.494;2023-02-19T00:28:13;523.45;;;156.23;;
1503;SDS011;743;47.076;15.494;2023-02-19T00:30:43;539.83;;;166.50;;
1503;SDS011;743;47.076;15.494;2023-02-19T00:33:13;528.20;;;157.00;;
1503;SDS011;743;47.076;15.494;2023-02-19T00:35:44;527.75;;;156.52;;
1503;SDS011;743;47.076;15.494;2023-02-19T00:40:39;512.63;;;144.10;;
1503;SDS011;743;47.076;15.494;2023-02-19T00:43:07;522.40;;;150.75;;
1503;SDS011;743;47.076;15.494;2023-02-19T00:45:35;522.85;;;151.55;;
1503;SDS011;743;47.076;15.494;2023-02-19T00:48:05;528.15;;;153.50;;
1503;SDS011;743;47.076;15.494;2023-02-19T00:50:33;535.20;;;156.32;;
1503;SDS011;743;47.076;15.494;2023-02-19T00:53:05;540.95;;;158.68;;
1503;SDS011;743;47.076;15.494;2023-02-19T00:55:32;528.63;;;152.82;;
1503;SDS011;743;47.076;15.494;2023-02-19T00:58:01;536.53;;;155.52;;
1503;SDS011;743;47.076;15.494;2023-02-19T01:00:32;531.35;;;154.35;;
1503;SDS011;743;47.076;15.494;2023-02-19T01:03:00;536.28;;;156.18;;
1503;SDS011;743;47.076;15.494;2023-02-19T01:05:28;537.72;;;160.48;;
1503;SDS011;743;47.076;15.494;2023-02-19T01:07:59;534.72;;;157.48;;
1503;SDS011;743;47.076;15.494;2023-02-19T01:10:31;520.45;;;148.23;;
1503;SDS011;743;47.076;15.494;2023-02-19T01:13:03;528.00;;;148.55;;
1503;SDS011;743;47.076;15.494;2023-02-19T01:15:32;529.08;;;147.70;;
1503;SDS011;743;47.076;15.494;2023-02-19T01:18:06;537.13;;;153.48;;
1503;SDS011;743;47.076;15.494;2023-02-19T01:20:34;536.78;;;152.13;;
1503;SDS011;743;47.076;15.494;2023-02-19T01:23:09;535.35;;;150.93;;
1503;SDS011;743;47.076;15.494;2023-02-19T01:25:43;537.25;;;150.45;;
1503;SDS011;743;47.076;15.494;2023-02-19T01:28:14;543.80;;;149.25;;
1503;SDS011;743;47.076;15.494;2023-02-19T01:30:42;533.60;;;145.53;;
1503;SDS011;743;47.076;15.494;2023-02-19T01:33:11;540.00;;;150.13;;
1503;SDS011;743;47.076;15.494;2023-02-19T01:35:38;538.78;;;148.57;;
1503;SDS011;743;47.076;15.494;2023-02-19T01:38:06;541.78;;;146.55;;
1503;SDS011;743;47.076;15.494;2023-02-19T01:40:33;547.08;;;156.27;;
1503;SDS011;743;47.076;15.494;2023-02-19T01:43:05;536.55;;;147.88;;
1503;SDS011;743;47.076;15.494;2023-02-19T01:45:38;540.97;;;151.95;;
1503;SDS011;743;47.076;15.494;2023-02-19T01:48:14;533.42;;;151.70;;
1503;SDS011;743;47.076;15.494;2023-02-19T01:50:46;528.95;;;149.38;;
1503;SDS011;743;47.076;15.494;2023-02-19T01:53:21;536.15;;;152.95;;
1503;SDS011;743;47.076;15.494;2023-02-19T01:55:55;534.45;;;148.95;;
1503;SDS011;743;47.076;15.494;2023-02-19T01:58:30;534.35;;;153.07;;
1503;SDS011;743;47.076;15.494;2023-02-19T02:01:00;535.40;;;150.45;;
1503;SDS011;743;47.076;15.494;2023-02-19T02:03:30;534.60;;;150.15;;
1503;SDS011;743;47.076;15.494;2023-02-19T02:06:03;538.00;;;148.27;;
1503;SDS011;743;47.076;15.494;2023-02-19T02:08:35;546.72;;;150.43;;
1503;SDS011;743;47.076;15.494;2023-02-19T02:11:21;533.53;;;145.77;;
1503;SDS011;743;47.076;15.494;2023-02-19T02:13:51;549.60;;;156.98;;
1503;SDS011;743;47.076;15.494;2023-02-19T02:16:22;536.38;;;151.20;;
1503;SDS011;743;47.076;15.494;2023-02-19T02:18:58;540.78;;;149.77;;
1503;SDS011;743;47.076;15.494;2023-02-19T02:27:49;544.13;;;147.68;;
1503;SDS011;743;47.076;15.494;2023-02-19T02:30:29;531.95;;;151.70;;
1503;SDS011;743;47.076;15.494;2023-02-19T02:33:05;535.70;;;149.70;;
1503;SDS011;743;47.076;15.494;2023-02-19T02:35:43;547.53;;;157.50;;
1503;SDS011;743;47.076;15.494;2023-02-19T02:38:17;538.20;;;151.63;;
1503;SDS011;743;47.076;15.494;2023-02-19T02:40:50;540.95;;;154.40;;
1503;SDS011;743;47.076;15.494;2023-02-19T02:43:19;379.73;;;110.30;;
1503;SDS011;743;47.076;15.494;2023-02-19T02:45:50;389.77;;;109.60;;
1503;SDS011;743;47.076;15.494;2023-02-19T02:48:21;532.50;;;150.30;;
1503;SDS011;743;47.076;15.494;2023-02-19T02:51:00;545.60;;;151.95;;
1503;SDS011;743;47.076;15.494;2023-02-19T02:53:35;537.30;;;155.77;;
1503;SDS011;743;47.076;15.494;2023-02-19T02:56:24;541.10;;;153.70;;
1503;SDS011;743;47.076;15.494;2023-02-19T02:58:52;539.95;;;161.68;;
1503;SDS011;743;47.076;15.494;2023-02-19T03:01:26;538.13;;;156.52;;
1503;SDS011;743;47.076;15.494;2023-02-19T03:04:18;532.42;;;150.85;;
1503;SDS011;743;47.076;15.494;2023-02-19T03:06:51;542.95;;;154.95;;
1503;SDS011;743;47.076;15.494;2023-02-19T03:09:24;544.58;;;156.82;;
1503;SDS011;743;47.076;15.494;2023-02-19T03:12:05;544.05;;;153.02;;
1503;SDS011;743;47.076;15.494;2023-02-19T03:14:57;541.10;;;148.15;;
1503;SDS011;743;47.076;15.494;2023-02-19T03:17:50;542.78;;;147.02;;
1503;SDS011;743;47.076;15.494;2023-02-19T03:20:40;548.53;;;153.48;;
1503;SDS011;743;47.076;15.494;2023-02-19T03:23:11;559.33;;;156.43;;
1503;SDS011;743;47.076;15.494;2023-02-19T03:25:42;538.03;;;151.77;;
1503;SDS011;743;47.076;15.494;2023-02-19T03:28:29;531.92;;;145.52;;
1503;SDS011;743;47.076;15.494;2023-02-19T03:31:18;541.58;;;148.65;;
1503;SDS011;743;47.076;15.494;2023-02-19T03:33:53;544.13;;;153.75;;
1503;SDS011;743;47.076;15.494;2023-02-19T03:36:23;552.25;;;158.77;;
1503;SDS011;743;47.076;15.494;2023-02-19T03:38:57;548.10;;;155.50;;
1503;SDS011;743;47.076;15.494;2023-02-19T03:41:29;552.53;;;162.77;;
1503;SDS011;743;47.076;15.494;2023-02-19T03:44:02;547.85;;;157.00;;
1503;SDS011;743;47.076;15.494;2023-02-19T03:46:43;540.67;;;152.35;;
1503;SDS011;743;47.076;15.494;2023-02-19T03:49:23;537.63;;;146.98;;
1503;SDS011;743;47.076;15.494;2023-02-19T03:51:56;537.97;;;151.75;;
1503;SDS011;743;47.076;15.494;2023-02-19T03:54:34;544.17;;;154.70;;
1503;SDS011;743;47.076;15.494;2023-02-19T03:59:46;527.45;;;146.77;;
1503;SDS011;743;47.076;15.494;2023-02-19T04:02:22;535.60;;;147.68;;
1503;SDS011;743;47.076;15.494;2023-02-19T04:04:59;531.05;;;152.57;;
1503;SDS011;743;47.076;15.494;2023-02-19T04:07:35;536.58;;;150.00;;
1503;SDS011;743;47.076;15.494;2023-02-19T04:10:06;541.42;;;152.20;;
1503;SDS011;743;47.076;15.494;2023-02-19T04:15:08;545.92;;;155.05;;
1503;SDS011;743;47.076;15.494;2023-02-19T04:17:40;534.85;;;150.95;;
1503;SDS011;743;47.076;15.494;2023-02-19T04:20:13;539.58;;;148.43;;
1503;SDS011;743;47.076;15.494;2023-02-19T04:22:43;539.38;;;151.93;;
1503;SDS011;743;47.076;15.494;2023-02-19T04:25:11;545.75;;;154.35;;
1503;SDS011;743;47.076;15.494;2023-02-19T04:27:39;524.47;;;143.07;;
1503;SDS011;743;47.076;15.494;2023-02-19T04:30:11;534.30;;;148.45;;
1503;SDS011;743;47.076;15.494;2023-02-19T04:32:42;532.72;;;145.13;;
1503;SDS011;743;47.076;15.494;2023-02-19T04:35:10;545.28;;;155.27;;
1503;SDS011;743;47.076;15.494;2023-02-19T04:37:39;529.65;;;147.30;;
1503;SDS011;743;47.076;15.494;2023-02-19T04:40:09;524.30;;;141.80;;
1503;SDS011;743;47.076;15.494;2023-02-19T04:42:38;535.45;;;152.00;;
1503;SDS011;743;47.076;15.494;2023-02-19T04:45:06;527.45;;;142.70;;
1503;SDS011;743;47.076;15.494;2023-02-19T04:47:33;529.47;;;147.05;;
1503;SDS011;743;47.076;15.494;2023-02-19T04:50:05;536.17;;;146.40;;
1503;SDS011;743;47.076;15.494;2023-02-19T04:52:34;533.75;;;147.40;;
1503;SDS011;743;47.076;15.494;2023-02-19T04:55:07;527.10;;;145.93;;
1503;SDS011;743;47.076;15.494;2023-02-19T04:57:37;520.30;;;140.40;;
1503;SDS011;743;47.076;15.494;2023-02-19T05:00:05;538.53;;;150.15;;
1503;SDS011;743;47.076;15.494;2023-02-19T05:02:36;530.47;;;146.52;;
1503;SDS011;743;47.076;15.494;2023-02-19T05:05:03;525.75;;;143.60;;
1503;SDS011;743;47.076;15.494;2023-02-19T05:07:31;519.33;;;137.75;;
1503;SDS011;743;47.076;15.494;2023-02-19T05:09:59;376.08;;;99.15;;
1503;SDS011;743;47.076;15.494;2023-02-19T05:12:29;522.40;;;139.77;;
1503;SDS011;743;47.076;15.494;2023-02-19T05:14:58;543.22;;;157.40;;
1503;SDS011;743;47.076;15.494;2023-02-19T05:17:26;522.70;;;140.63;;
1503;SDS011;743;47.076;15.494;2023-02-19T05:19:55;524.47;;;140.50;;
1503;SDS011;743;47.076;15.494;2023-02-19T05:22:23;516.05;;;141.15;;
1503;SDS011;743;47.076;15.494;2023-02-19T05:24:52;355.05;;;93.20;;
1503;SDS011;743;47.076;15.494;2023-02-19T05:27:20;360.45;;;99.78;;
1503;SDS011;743;47.076;15.494;2023-02-19T05:29:56;523.40;;;143.15;;
1503;SDS011;743;47.076;15.494;2023-02-19T05:32:25;497.02;;;133.32;;
1503;SDS011;743;47.076;15.494;2023-02-19T05:34:53;518.20;;;137.52;;
1503;SDS011;743;47.076;15.494;2023-02-19T05:37:25;502.13;;;131.02;;
1503;SDS011;743;47.076;15.494;2023-02-19T05:39:52;512.38;;;141.15;;
1503;SDS011;743;47.076;15.494;2023-02-19T05:42:21;504.67;;;139.03;;
1503;SDS011;743;47.076;15.494;2023-02-19T05:44:51;502.05;;;135.35;;
1503;SDS011;743;47.076;15.494;2023-02-19T05:47:18;509.45;;;141.93;;
1503;SDS011;743;47.076;15.494;2023-02-19T05:49:49;505.20;;;140.68;;
1503;SDS011;743;47.076;15.494;2023-02-19T05:52:16;517.35;;;143.70;;
1503;SDS011;743;47.076;15.494;2023-02-19T05:54:46;518.80;;;148.73;;
1503;SDS011;743;47.076;15.494;2023-02-19T05:57:15;521.92;;;150.93;;
1503;SDS011;743;47.076;15.494;2023-02-19T05:59:44;517.60;;;147.98;;
1503;SDS011;743;47.076;15.494;2023-02-19T06:02:14;522.08;;;152.27;;
1503;SDS011;743;47.076;15.494;2023-02-19T06:04:41;513.63;;;146.65;;
1503;SDS011;743;47.076;15.494;2023-02-19T06:07:10;521.50;;;149.07;;
1503;SDS011;743;47.076;15.494;2023-02-19T06:09:38;516.40;;;146.70;;
1503;SDS011;743;47.076;15.494;2023-02-19T06:12:06;522.97;;;148.63;;
1503;SDS011;743;47.076;15.494;2023-02-19T06:14:37;528.58;;;149.30;;
1503;SDS011;743;47.076;15.494;2023-02-19T06:17:20;523.90;;;150.48;;
1503;SDS011;743;47.076;15.494;2023-02-19T06:19:50;524.97;;;146.73;;
1503;SDS011;743;47.076;15.494;2023-02-19T06:22:19;540.25;;;157.77;;
1503;SDS011;743;47.076;15.494;2023-02-19T06:24:47;521.80;;;144.57;;
1503;SDS011;743;47.076;15.494;2023-02-19T06:27:15;515.78;;;144.52;;
1503;SDS011;743;47.076;15.494;2023-02-19T06:29:43;520.58;;;148.73;;
1503;SDS011;743;47.076;15.494;2023-02-19T06:32:11;534.47;;;153.10;;
1503;SDS011;743;47.076;15.494;2023-02-19T06:34:40;536.92;;;153.27;;
1503;SDS011;743;47.076;15.494;2023-02-19T06:42:07;527.75;;;150.55;;
1503;SDS011;743;47.076;15.494;2023-02-19T06:44:36;530.38;;;147.73;;
1503;SDS011;743;47.076;15.494;2023-02-19T06:47:04;535.55;;;152.30;;
1503;SDS011;743;47.076;15.494;2023-02-19T06:49:32;532.40;;;159.20;;
1503;SDS011;743;47.076;15.494;2023-02-19T06:52:03;531.58;;;147.65;;
1503;SDS011;743;47.076;15.494;2023-02-19T06:54:31;525.95;;;157.32;;
1503;SDS011;743;47.076;15.494;2023-02-19T06:56:59;521.63;;;152.55;;
1503;SDS011;743;47.076;15.494;2023-02-19T06:59:26;526.88;;;155.07;;
1503;SDS011;743;47.076;15.494;2023-02-19T07:01:54;526.10;;;151.90;;
1503;SDS011;743;47.076;15.494;2023-02-19T07:04:22;509.55;;;142.73;;
1503;SDS011;743;47.076;15.494;2023-02-19T07:06:50;518.90;;;148.68;;
1503;SDS011;743;47.076;15.494;2023-02-19T07:09:21;520.40;;;148.57;;
1503;SDS011;743;47.076;15.494;2023-02-19T07:11:49;515.15;;;142.43;;
1503;SDS011;743;47.076;15.494;2023-02-19T07:14:18;526.08;;;153.23;;
1503;SDS011;743;47.076;15.494;2023-02-19T07:16:45;533.60;;;167.43;;
1503;SDS011;743;47.076;15.494;2023-02-19T07:19:16;518.13;;;150.18;;
1503;SDS011;743;47.076;15.494;2023-02-19T07:21:45;535.22;;;164.02;;
1503;SDS011;743;47.076;15.494;2023-02-19T07:24:14;382.05;;;115.93;;
1503;SDS011;743;47.076;15.494;2023-02-19T07:26:46;536.22;;;160.82;;
1503;SDS011;743;47.076;15.494;2023-02-19T07:29:17;534.03;;;154.85;;
1503;SDS011;743;47.076;15.494;2023-02-19T07:31:46;532.40;;;158.52;;
1503;SDS011;743;47.076;15.494;2023-02-19T07:34:14;520.45;;;149.85;;
1503;SDS011;743;47.076;15.494;2023-02-19T07:36:42;532.65;;;158.05;;
1503;SDS011;743;47.076;15.494;2023-02-19T07:41:39;521.50;;;151.10;;
1503;SDS011;743;47.076;15.494;2023-02-19T07:44:09;536.60;;;155.55;;
1503;SDS011;743;47.076;15.494;2023-02-19T07:46:40;527.55;;;154.20;;
1503;SDS011;743;47.076;15.494;2023-02-19T07:49:09;532.63;;;158.40;;
1503;SDS011;743;47.076;15.494;2023-02-19T07:51:40;533.03;;;153.32;;
1503;SDS011;743;47.076;15.494;2023-02-19T07:54:09;538.13;;;157.82;;
1503;SDS011;743;47.076;15.494;2023-02-19T07:56:38;535.78;;;159.98;;
1503;SDS011;743;47.076;15.494;2023-02-19T07:59:05;531.03;;;156.88;;
1503;SDS011;743;47.076;15.494;2023-02-19T08:01:35;543.65;;;168.27;;
1503;SDS011;743;47.076;15.494;2023-02-19T08:04:20;544.60;;;166.90;;
1503;SDS011;743;47.076;15.494;2023-02-19T08:06:48;536.15;;;156.90;;
1503;SDS011;743;47.076;15.494;2023-02-19T08:09:15;549.25;;;172.50;;
1503;SDS011;743;47.076;15.494;2023-02-19T08:11:43;549.30;;;168.45;;
1503;SDS011;743;47.076;15.494;2023-02-19T08:14:28;549.92;;;168.38;;
1503;SDS011;743;47.076;15.494;2023-02-19T08:16:59;550.17;;;172.23;;
1503;SDS011;743;47.076;15.494;2023-02-19T08:19:26;532.72;;;155.00;;
1503;SDS011;743;47.076;15.494;2023-02-19T08:21:54;547.30;;;172.82;;
1503;SDS011;743;47.076;15.494;2023-02-19T08:24:22;539.95;;;162.00;;
1503;SDS011;743;47.076;15.494;2023-02-19T08:26:55;548.67;;;171.40;;
1503;SDS011;743;47.076;15.494;2023-02-19T08:29:27;540.70;;;167.57;;
1503;SDS011;743;47.076;15.494;2023-02-19T08:31:55;535.90;;;164.82;;
1503;SDS011;743;47.076;15.494;2023-02-19T08:34:24;549.15;;;173.75;;
1503;SDS011;743;47.076;15.494;2023-02-19T08:36:52;547.80;;;174.73;;
1503;SDS011;743;47.076;15.494;2023-02-19T08:39:20;531.92;;;169.27;;
1503;SDS011;743;47.076;15.494;2023-02-19T08:41:48;547.88;;;177.55;;
1503;SDS011;743;47.076;15.494;2023-02-19T08:44:20;546.45;;;173.88;;
1503;SDS011;743;47.076;15.494;2023-02-19T08:46:50;534.42;;;172.35;;
1503;SDS011;743;47.076;15.494;2023-02-19T08:49:17;542.78;;;173.38;;
1503;SDS011;743;47.076;15.494;2023-02-19T08:51:47;540.83;;;180.90;;
1503;SDS011;743;47.076;15.494;2023-02-19T08:54:15;546.28;;;176.30;;
1503;SDS011;743;47.076;15.494;2023-02-19T08:56:43;540.03;;;177.80;;
1503;SDS011;743;47.076;15.494;2023-02-19T08:59:14;558.95;;;183.50;;
1503;SDS011;743;47.076;15.494;2023-02-19T09:01:44;552.35;;;180.27;;
1503;SDS011;743;47.076;15.494;2023-02-19T09:04:14;545.60;;;175.75;;
1503;SDS011;743;47.076;15.494;2023-02-19T09:06:42;549.88;;;180.57;;
1503;SDS011;743;47.076;15.494;2023-02-19T09:09:12;564.83;;;185.30;;
1503;SDS011;743;47.076;15.494;2023-02-19T09:11:40;548.55;;;181.05;;
1503;SDS011;743;47.076;15.494;2023-02-19T09:14:08;534.50;;;179.27;;
1503;SDS011;743;47.076;15.494;2023-02-19T09:16:36;556.22;;;182.63;;
1503;SDS011;743;47.076;15.494;2023-02-19T09:19:04;541.30;;;176.07;;
1503;SDS011;743;47.076;15.494;2023-02-19T09:26:40;541.40;;;173.77;;
1503;SDS011;743;47.076;15.494;2023-02-19T09:29:08;567.80;;;189.63;;
1503;SDS011;743;47.076;15.494;2023-02-19T09:31:37;562.45;;;195.63;;
1503;SDS011;743;47.076;15.494;2023-02-19T09:34:16;580.83;;;208.60;;
1503;SDS011;743;47.076;15.494;2023-02-19T09:36:47;575.13;;;200.75;;
1503;SDS011;743;47.076;15.494;2023-02-19T09:39:21;574.75;;;205.48;;
1503;SDS011;743;47.076;15.494;2023-02-19T09:41:57;575.40;;;209.07;;
1503;SDS011;743;47.076;15.494;2023-02-19T09:44:31;580.88;;;206.68;;
1503;SDS011;743;47.076;15.494;2023-02-19T09:47:02;577.92;;;202.70;;
1503;SDS011;743;47.076;15.494;2023-02-19T09:49:37;597.28;;;211.48;;
1503;SDS011;743;47.076;15.494;2023-02-19T09:52:11;582.97;;;218.75;;
1503;SDS011;743;47.076;15.494;2023-02-19T09:54:45;593.00;;;213.75;;
1503;SDS011;743;47.076;15.494;2023-02-19T09:57:19;600.55;;;220.48;;
1503;SDS011;743;47.076;15.494;2023-02-19T09:59:55;594.00;;;216.02;;
1503;SDS011;743;47.076;15.494;2023-02-19T10:02:30;602.20;;;221.93;;
1503;SDS011;743;47.076;15.494;2023-02-19T10:04:59;611.25;;;226.38;;
1503;SDS011;743;47.076;15.494;2023-02-19T10:07:33;598.35;;;220.15;;
1503;SDS011;743;47.076;15.494;2023-02-19T10:10:17;623.75;;;239.15;;
1503;SDS011;743;47.076;15.494;2023-02-19T10:12:58;618.47;;;233.57;;
1503;SDS011;743;47.076;15.494;2023-02-19T10:15:41;619.13;;;238.45;;
1503;SDS011;743;47.076;15.494;2023-02-19T10:18:24;614.80;;;239.60;;
1503;SDS011;743;47.076;15.494;2023-02-19T10:20:53;609.53;;;237.68;;
1503;SDS011;743;47.076;15.494;2023-02-19T10:23:24;601.08;;;231.93;;
1503;SDS011;743;47.076;15.494;2023-02-19T10:25:55;585.45;;;219.50;;
1503;SDS011;743;47.076;15.494;2023-02-19T10:28:30;580.75;;;236.88;;
1503;SDS011;743;47.076;15.494;2023-02-19T10:31:00;597.75;;;240.25;;
1503;SDS011;743;47.076;15.494;2023-02-19T10:33:30;613.83;;;252.23;;
1503;SDS011;743;47.076;15.494;2023-02-19T10:36:01;419.98;;;163.27;;
1503;SDS011;743;47.076;15.494;2023-02-19T10:38:32;630.28;;;257.73;;
1503;SDS011;743;47.076;15.494;2023-02-19T10:41:03;601.75;;;244.45;;
1503;SDS011;743;47.076;15.494;2023-02-19T10:43:35;616.38;;;253.95;;
1503;SDS011;743;47.076;15.494;2023-02-19T10:46:07;569.33;;;245.95;;
1503;SDS011;743;47.076;15.494;2023-02-19T10:48:44;614.78;;;250.70;;
1503;SDS011;743;47.076;15.494;2023-02-19T10:51:18;615.33;;;246.90;;
1503;SDS011;743;47.076;15.494;2023-02-19T10:54:02;611.92;;;249.02;;
1503;SDS011;743;47.076;15.494;2023-02-19T10:56:37;624.35;;;254.82;;
1503;SDS011;743;47.076;15.494;2023-02-19T10:59:22;572.63;;;257.98;;
1503;SDS011;743;47.076;15.494;2023-02-19T11:01:58;624.60;;;257.50;;
1503;SDS011;743;47.076;15.494;2023-02-19T11:04:32;634.47;;;265.02;;
1503;SDS011;743;47.076;15.494;2023-02-19T11:07:09;628.30;;;263.23;;
1503;SDS011;743;47.076;15.494;2023-02-19T11:12:11;570.63;;;246.93;;
1503;SDS011;743;47.076;15.494;2023-02-19T11:14:43;620.78;;;261.35;;
1503;SDS011;743;47.076;15.494;2023-02-19T11:17:19;623.22;;;253.43;;
1503;SDS011;743;47.076;15.494;2023-02-19T11:19:51;636.58;;;270.48;;
1503;SDS011;743;47.076;15.494;2023-02-19T11:22:28;642.85;;;279.38;;
1503;SDS011;743;47.076;15.494;2023-02-19T11:25:01;630.15;;;256.77;;
1503;SDS011;743;47.076;15.494;2023-02-19T11:27:31;617.75;;;266.60;;
1503;SDS011;743;47.076;15.494;2023-02-19T11:33:12;431.23;;;180.50;;
1503;SDS011;743;47.076;15.494;2023-02-19T11:35:52;615.45;;;264.58;;
1503;SDS011;743;47.076;15.494;2023-02-19T11:38:27;561.65;;;268.83;;
1503;SDS011;743;47.076;15.494;2023-02-19T11:41:00;614.00;;;277.05;;
1503;SDS011;743;47.076;15.494;2023-02-19T11:43:46;626.40;;;288.95;;
1503;SDS011;743;47.076;15.494;2023-02-19T11:46:29;625.53;;;279.17;;
1503;SDS011;743;47.076;15.494;2023-02-19T11:49:13;623.53;;;286.23;;
1503;SDS011;743;47.076;15.494;2023-02-19T11:51:57;632.85;;;305.63;;
1503;SDS011;743;47.076;15.494;2023-02-19T11:54:44;639.03;;;294.67;;
1503;SDS011;743;47.076;15.494;2023-02-19T11:57:23;393.35;;;196.13;;
1503;SDS011;743;47.076;15.494;2023-02-19T12:00:20;633.22;;;299.75;;
1503;SDS011;743;47.076;15.494;2023-02-19T12:06:00;599.25;;;299.67;;
1503;SDS011;743;47.076;15.494;2023-02-19T12:09:15;586.30;;;303.10;;
1503;SDS011;743;47.076;15.494;2023-02-19T12:12:00;575.70;;;302.90;;
1503;SDS011;743;47.076;15.494;2023-02-19T12:14:58;573.95;;;305.52;;
1503;SDS011;743;47.076;15.494;2023-02-19T12:17:44;561.17;;;303.42;;
1503;SDS011;743;47.076;15.494;2023-02-19T12:20:32;571.08;;;307.17;;
1503;SDS011;743;47.076;15.494;2023-02-19T12:26:04;563.08;;;310.88;;
1503;SDS011;743;47.076;15.494;2023-02-19T12:28:42;569.03;;;319.27;;
1503;SDS011;743;47.076;15.494;2023-02-19T12:34:34;571.33;;;328.30;;
1503;SDS011;743;47.076;15.494;2023-02-19T12:37:36;564.05;;;316.55;;
1503;SDS011;743;47.076;15.494;2023-02-19T12:40:19;566.67;;;321.75;;
1503;SDS011;743;47.076;15.494;2023-02-19T12:43:00;567.78;;;317.27;;
1503;SDS011;743;47.076;15.494;2023-02-19T12:45:37;387.38;;;207.40;;
1503;SDS011;743;47.076;15.494;2023-02-19T12:48:12;557.92;;;305.38;;
1503;SDS011;743;47.076;15.494;2023-02-19T12:50:56;572.25;;;310.17;;
1503;SDS011;743;47.076;15.494;2023-02-19T12:53:50;565.67;;;313.73;;
1503;SDS011;743;47.076;15.494;2023-02-19T12:56:27;571.50;;;326.17;;
1503;SDS011;743;47.076;15.494;2023-02-19T12:59:03;571.30;;;313.10;;
1503;SDS011;743;47.076;15.494;2023-02-19T13:01:38;565.38;;;320.02;;
1503;SDS011;743;47.076;15.494;2023-02-19T13:04:21;563.03;;;317.48;;
1503;SDS011;743;47.076;15.494;2023-02-19T13:06:52;567.47;;;321.25;;
1503;SDS011;743;47.076;15.494;2023-02-19T13:09:27;574.22;;;323.55;;
1503;SDS011;743;47.076;15.494;2023-02-19T13:12:11;564.45;;;318.38;;
1503;SDS011;743;47.076;15.494;2023-02-19T13:14:48;560.88;;;316.38;;
1503;SDS011;743;47.076;15.494;2023-02-19T13:17:24;556.10;;;312.25;;
1503;SDS011;743;47.076;15.494;2023-02-19T13:19:57;559.92;;;310.42;;
1503;SDS011;743;47.076;15.494;2023-02-19T13:22:30;564.28;;;315.27;;
1503;SDS011;743;47.076;15.494;2023-02-19T13:25:24;573.30;;;319.70;;
1503;SDS011;743;47.076;15.494;2023-02-19T13:28:18;570.63;;;321.98;;
1503;SDS011;743;47.076;15.494;2023-02-19T13:31:05;566.47;;;317.73;;
1503;SDS011;743;47.076;15.494;2023-02-19T13:33:47;565.92;;;314.38;;
1503;SDS011;743;47.076;15.494;2023-02-19T13:36:30;561.67;;;314.85;;
1503;SDS011;743;47.076;15.494;2023-02-19T13:39:03;549.65;;;304.73;;
1503;SDS011;743;47.076;15.494;2023-02-19T13:41:38;565.88;;;315.92;;
1503;SDS011;743;47.076;15.494;2023-02-19T13:44:14;557.80;;;309.48;;
1503;SDS011;743;47.076;15.494;2023-02-19T13:46:44;550.40;;;311.75;;
1503;SDS011;743;47.076;15.494;2023-02-19T14:04:23;548.60;;;289.17;;
1503;SDS011;743;47.076;15.494;2023-02-19T14:10:06;550.25;;;301.70;;
1503;SDS011;743;47.076;15.494;2023-02-19T14:12:41;537.53;;;291.25;;
1503;SDS011;743;47.076;15.494;2023-02-19T14:15:36;550.70;;;307.35;;
1503;SDS011;743;47.076;15.494;2023-02-19T14:21:16;541.85;;;297.27;;
1503;SDS011;743;47.076;15.494;2023-02-19T14:23:50;548.60;;;308.02;;
1503;SDS011;743;47.076;15.494;2023-02-19T14:26:22;557.70;;;308.88;;
1503;SDS011;743;47.076;15.494;2023-02-19T14:28:55;543.63;;;306.33;;
1503;SDS011;743;47.076;15.494;2023-02-19T14:31:25;548.83;;;309.45;;
1503;SDS011;743;47.076;15.494;2023-02-19T14:33:57;547.78;;;303.80;;
1503;SDS011;743;47.076;15.494;2023-02-19T14:36:36;551.67;;;311.95;;
1503;SDS011;743;47.076;15.494;2023-02-19T14:39:19;535.78;;;300.13;;
1503;SDS011;743;47.076;15.494;2023-02-19T14:41:50;533.90;;;298.02;;
1503;SDS011;743;47.076;15.494;2023-02-19T14:44:23;544.28;;;300.90;;
1503;SDS011;743;47.076;15.494;2023-02-19T14:46:56;542.15;;;298.88;;
1503;SDS011;743;47.076;15.494;2023-02-19T14:49:38;544.80;;;296.90;;
1503;SDS011;743;47.076;15.494;2023-02-19T14:52:13;534.80;;;291.67;;
1503;SDS011;743;47.076;15.494;2023-02-19T14:54:51;546.42;;;302.83;;
1503;SDS011;743;47.076;15.494;2023-02-19T14:57:22;534.50;;;298.00;;
1503;SDS011;743;47.076;15.494;2023-02-19T14:59:57;537.95;;;293.40;;
1503;SDS011;743;47.076;15.494;2023-02-19T15:02:31;528.00;;;277.30;;
1503;SDS011;743;47.076;15.494;2023-02-19T15:05:13;525.15;;;288.83;;
1503;SDS011;743;47.076;15.494;2023-02-19T15:07:45;518.58;;;280.15;;
1503;SDS011;743;47.076;15.494;2023-02-19T15:10:18;529.13;;;283.92;;
1503;SDS011;743;47.076;15.494;2023-02-19T15:12:49;523.55;;;290.40;;
1503;SDS011;743;47.076;15.494;2023-02-19T15:15:21;522.28;;;291.90;;
1503;SDS011;743;47.076;15.494;2023-02-19T15:17:51;529.10;;;293.48;;
1503;SDS011;743;47.076;15.494;2023-02-19T15:20:23;507.83;;;284.85;;
1503;SDS011;743;47.076;15.494;2023-02-19T15:22:55;511.98;;;284.70;;
1503;SDS011;743;47.076;15.494;2023-02-19T15:25:28;514.38;;;291.90;;
1503;SDS011;743;47.076;15.494;2023-02-19T15:30:48;511.85;;;280.33;;
1503;SDS011;743;47.076;15.494;2023-02-19T15:33:18;503.70;;;274.25;;
1503;SDS011;743;47.076;15.494;2023-02-19T15:35:50;499.98;;;263.40;;
1503;SDS011;743;47.076;15.494;2023-02-19T15:38:31;486.10;;;257.98;;
1503;SDS011;743;47.076;15.494;2023-02-19T15:41:05;495.48;;;258.63;;
1503;SDS011;743;47.076;15.494;2023-02-19T15:43:41;490.30;;;255.68;;
1503;SDS011;743;47.076;15.494;2023-02-19T15:46:18;483.55;;;248.55;;
1503;SDS011;743;47.076;15.494;2023-02-19T15:49:02;486.23;;;240.13;;
1503;SDS011;743;47.076;15.494;2023-02-19T15:51:35;481.10;;;245.13;;
1503;SDS011;743;47.076;15.494;2023-02-19T15:54:20;493.70;;;241.82;;
1503;SDS011;743;47.076;15.494;2023-02-19T15:56:54;490.83;;;240.63;;
1503;SDS011;743;47.076;15.494;2023-02-19T15:59:27;489.83;;;245.23;;
1503;SDS011;743;47.076;15.494;2023-02-19T16:02:08;485.10;;;233.48;;